Terminal Aerodrome Forecast
Issued by NWS Newport/Morehead City, NC

Home | Current Version | Previous Version | Text Only | Print | Product List | Glossary On
Versions: 1 2 3 4 5 6 7 8 9 10 11 12 13 14 15 16 17 18 19 20 21 22 23 24 25 26
000
FTUS42 KMHX 281700
TAFEWN
TAF
KEWN 281733Z 2818/2918 24008KT P6SM SCT040 BKN120
     FM290000 23003KT P6SM VCSH OVC020
     FM290400 27002KT 5SM BR VCSH OVC008
     FM290600 34002KT 2SM -RA BR OVC004=

USA.gov is the U.S. government's official web portal to all federal, state and local government web resources and services.